Terminal Aerodrome Forecast
Issued by NWS Louisville, KY

Home | Current Version | Previous Version | Text Only | Print | Product List | Glossary On
Versions: 1 2 3 4 5 6 7 8 9 10 11 12 13 14
324
FTUS43 KLMK 211720
TAFLEX
TAF
KLEX 211720Z 2118/2218 24005KT P6SM SCT050
     FM220000 VRB03KT P6SM SCT250
     FM221400 25006KT P6SM SCT040 BKN250=

USA.gov is the U.S. government's official web portal to all federal, state and local government web resources and services.